createdAt,value
2022-12-26T00:01:25.030Z,3.42
2022-12-26T00:03:53.828Z,3.30
2022-12-26T00:06:24.087Z,3.42
2022-12-26T00:08:54.704Z,2.85
2022-12-26T00:11:24.320Z,2.45
2022-12-26T00:13:55.994Z,2.90
2022-12-26T00:16:24.752Z,3.28
2022-12-26T00:18:52.901Z,2.60
2022-12-26T00:21:22.431Z,2.28
2022-12-26T00:23:50.834Z,2.95
2022-12-26T00:26:24.351Z,3.17
2022-12-26T00:28:53.890Z,2.42
2022-12-26T00:31:24.224Z,2.80
2022-12-26T00:33:52.804Z,2.42
2022-12-26T00:36:22.632Z,2.40
2022-12-26T00:38:51.472Z,2.42
2022-12-26T00:41:21.897Z,2.40
2022-12-26T00:43:50.468Z,3.22
2022-12-26T00:46:19.962Z,2.70
2022-12-26T00:48:48.466Z,2.50
2022-12-26T00:51:16.465Z,2.58
2022-12-26T00:53:44.934Z,3.08
2022-12-26T00:56:12.997Z,3.05
2022-12-26T00:58:42.929Z,2.72
2022-12-26T01:01:14.895Z,2.60
2022-12-26T01:03:43.667Z,2.00
2022-12-26T01:06:12.199Z,2.35
2022-12-26T01:08:40.451Z,2.50
2022-12-26T01:11:10.973Z,2.72
2022-12-26T01:13:39.629Z,2.65
2022-12-26T01:16:09.679Z,2.30
2022-12-26T01:18:37.871Z,3.03
2022-12-26T01:21:08.033Z,2.53
2022-12-26T01:23:36.274Z,2.33
2022-12-26T01:26:18.384Z,3.13
2022-12-26T01:28:48.935Z,2.90
2022-12-26T01:31:19.084Z,3.88
2022-12-26T01:33:47.447Z,3.03
2022-12-26T01:36:16.566Z,2.80
2022-12-26T01:38:44.682Z,2.67
2022-12-26T01:41:20.873Z,2.20
2022-12-26T01:43:59.178Z,2.33
2022-12-26T01:46:32.335Z,2.90
2022-12-26T01:49:07.044Z,1.90
2022-12-26T01:51:40.125Z,2.88
2022-12-26T01:54:39.928Z,2.72
2022-12-26T01:57:00.675Z,2.55
2022-12-26T01:59:31.963Z,2.53
2022-12-26T02:02:02.222Z,2.28
2022-12-26T02:04:53.037Z,2.17
2022-12-26T02:07:21.217Z,2.30
2022-12-26T02:09:49.310Z,2.72
2022-12-26T02:12:33.762Z,2.20
2022-12-26T02:15:09.661Z,2.10
2022-12-26T02:17:40.300Z,2.70
2022-12-26T02:20:18.556Z,2.40
2022-12-26T02:23:22.748Z,2.72
2022-12-26T02:26:44.925Z,2.88
2022-12-26T02:29:39.139Z,2.72
2022-12-26T02:32:16.925Z,2.45
2022-12-26T02:34:58.488Z,3.13
2022-12-26T02:37:41.680Z,3.55
2022-12-26T02:40:32.901Z,2.38
2022-12-26T02:43:07.681Z,2.28
2022-12-26T02:45:58.670Z,3.15
2022-12-26T02:48:37.464Z,2.67
2022-12-26T02:51:33.678Z,2.58
2022-12-26T02:54:29.660Z,2.58
2022-12-26T02:57:21.609Z,3.17
2022-12-26T03:00:12.568Z,3.00
2022-12-26T03:03:03.177Z,2.25
2022-12-26T03:05:54.464Z,2.72
2022-12-26T03:08:46.708Z,3.35
2022-12-26T03:11:32.672Z,2.88
2022-12-26T03:14:08.518Z,3.05
2022-12-26T03:16:54.270Z,3.17
2022-12-26T03:19:25.124Z,2.80
2022-12-26T03:21:54.696Z,3.17
2022-12-26T03:24:23.840Z,2.97
2022-12-26T03:26:54.394Z,3.42
2022-12-26T03:29:42.444Z,3.08
2022-12-26T03:32:13.348Z,3.90
2022-12-26T03:34:42.209Z,4.20
2022-12-26T03:37:47.812Z,4.43
2022-12-26T03:41:09.817Z,3.30
2022-12-26T03:44:18.278Z,5.22
2022-12-26T03:47:21.242Z,3.97
2022-12-26T03:50:13.659Z,3.35
2022-12-26T03:53:08.094Z,3.05
2022-12-26T03:56:02.064Z,2.80
2022-12-26T03:58:54.292Z,3.60
2022-12-26T04:01:55.524Z,2.95
2022-12-26T04:04:43.904Z,2.70
2022-12-26T04:07:34.079Z,2.72
2022-12-26T04:10:22.915Z,3.10
2022-12-26T04:13:10.784Z,2.80
2022-12-26T04:16:03.862Z,2.85
2022-12-26T04:18:56.384Z,2.30
2022-12-26T04:21:49.889Z,2.72
2022-12-26T04:24:41.671Z,2.67
2022-12-26T04:27:31.680Z,2.40
2022-12-26T04:30:17.569Z,1.90
2022-12-26T04:33:06.501Z,2.22
2022-12-26T04:35:55.770Z,2.08
2022-12-26T04:38:45.657Z,1.60
2022-12-26T04:41:32.192Z,3.08
2022-12-26T04:44:07.500Z,2.03
2022-12-26T04:46:37.464Z,2.05
2022-12-26T04:49:26.754Z,1.52
2022-12-26T04:51:56.826Z,2.20
2022-12-26T04:54:25.133Z,1.75
2022-12-26T04:56:53.635Z,1.55
2022-12-26T04:59:22.763Z,1.63
2022-12-26T05:02:08.756Z,2.08
2022-12-26T05:04:55.991Z,1.75
2022-12-26T05:07:43.809Z,1.92
2022-12-26T05:10:17.646Z,1.88
2022-12-26T05:12:45.977Z,2.05
2022-12-26T05:15:14.404Z,1.70
2022-12-26T05:17:59.964Z,1.75
2022-12-26T05:20:43.969Z,2.10
2022-12-26T05:23:34.887Z,1.80
2022-12-26T05:26:22.510Z,2.33
2022-12-26T05:28:55.992Z,2.45
2022-12-26T05:31:26.295Z,2.08
2022-12-26T05:34:05.557Z,2.00
2022-12-26T05:36:38.984Z,2.25
2022-12-26T05:39:08.133Z,2.33
2022-12-26T05:41:36.822Z,2.83
2022-12-26T05:44:05.530Z,2.60
2022-12-26T05:46:34.326Z,2.33
2022-12-26T05:49:02.978Z,2.85
2022-12-26T05:51:31.037Z,2.88
2022-12-26T05:54:00.419Z,2.30
2022-12-26T05:56:28.823Z,2.30
2022-12-26T05:58:57.913Z,2.65
2022-12-26T06:01:27.925Z,2.40
2022-12-26T06:03:58.130Z,2.38
2022-12-26T06:06:27.418Z,2.60
2022-12-26T06:08:57.217Z,2.22
2022-12-26T06:11:27.261Z,3.03
2022-12-26T06:13:56.057Z,2.22
2022-12-26T06:16:24.279Z,2.65
2022-12-26T06:18:52.344Z,3.97
2022-12-26T06:21:21.093Z,2.67
2022-12-26T06:23:50.076Z,2.63
2022-12-26T06:26:18.309Z,2.05
2022-12-26T06:28:47.798Z,2.60
2022-12-26T06:31:20.612Z,3.53
2022-12-26T06:33:49.593Z,4.10
2022-12-26T06:36:19.836Z,2.90
2022-12-26T06:38:48.288Z,4.80
2022-12-26T06:41:19.228Z,5.18
2022-12-26T06:43:48.901Z,3.67
2022-12-26T06:46:19.598Z,3.20
2022-12-26T06:48:47.735Z,2.47
2022-12-26T06:51:17.836Z,4.60
2022-12-26T06:53:45.908Z,3.10
2022-12-26T06:56:16.244Z,4.70
2022-12-26T06:58:44.379Z,4.32
2022-12-26T07:01:16.508Z,3.17
2022-12-26T07:03:51.173Z,4.70
2022-12-26T07:06:24.377Z,4.20
2022-12-26T07:08:53.406Z,1.48
2022-12-26T07:11:23.519Z,1.40
2022-12-26T07:13:51.670Z,1.25
2022-12-26T07:16:21.198Z,1.00
2022-12-26T07:18:49.265Z,0.98
2022-12-26T07:21:17.659Z,0.80
2022-12-26T07:23:45.695Z,0.40
2022-12-26T07:26:13.887Z,0.73
2022-12-26T07:28:41.952Z,0.65
2022-12-26T07:31:10.342Z,0.45
2022-12-26T07:33:39.713Z,0.40
2022-12-26T07:36:08.563Z,0.50
2022-12-26T07:38:36.668Z,0.40
2022-12-26T07:41:25.172Z,0.32
2022-12-26T07:43:53.473Z,0.50
2022-12-26T07:46:21.838Z,1.02
2022-12-26T07:48:51.265Z,0.52
2022-12-26T07:51:19.419Z,0.50
2022-12-26T07:53:48.431Z,0.50
2022-12-26T07:56:16.931Z,0.40
2022-12-26T07:58:44.996Z,0.40
2022-12-26T08:01:13.089Z,0.50
2022-12-26T08:03:41.213Z,0.60
2022-12-26T08:06:12.453Z,0.57
2022-12-26T08:08:45.433Z,0.40
2022-12-26T08:11:18.959Z,0.57
2022-12-26T08:13:47.020Z,0.68
2022-12-26T08:16:15.944Z,0.52
2022-12-26T08:18:44.269Z,0.65
2022-12-26T08:21:14.453Z,0.70
2022-12-26T08:23:42.474Z,0.50
2022-12-26T08:26:12.903Z,0.70
2022-12-26T08:28:43.287Z,0.60
2022-12-26T08:31:13.813Z,0.60
2022-12-26T08:33:42.171Z,0.68
2022-12-26T08:36:13.709Z,0.57
2022-12-26T08:38:41.944Z,0.40
2022-12-26T08:41:10.583Z,0.50
2022-12-26T08:44:24.531Z,0.90
2022-12-26T08:46:27.658Z,0.77
2022-12-26T08:48:55.657Z,0.50
2022-12-26T08:51:26.246Z,0.47
2022-12-26T08:53:56.179Z,0.63
2022-12-26T08:56:25.930Z,0.60
2022-12-26T08:58:54.434Z,0.80
2022-12-26T09:01:23.681Z,1.40
2022-12-26T09:03:54.083Z,2.30
2022-12-26T09:06:22.550Z,1.20
2022-12-26T09:08:52.038Z,0.98
2022-12-26T09:11:22.156Z,0.90
2022-12-26T09:13:50.462Z,1.50
2022-12-26T09:16:20.614Z,1.00
2022-12-26T09:18:50.083Z,0.88
2022-12-26T09:21:18.129Z,1.25
2022-12-26T09:23:46.374Z,1.38
2022-12-26T09:26:18.761Z,1.95
2022-12-26T09:28:48.081Z,1.52
2022-12-26T09:31:19.036Z,1.10
2022-12-26T09:33:48.081Z,7.03
2022-12-26T09:36:17.874Z,4.95
2022-12-26T09:38:47.423Z,1.30
2022-12-26T09:41:48.867Z,2.33
2022-12-26T09:44:21.691Z,1.65
2022-12-26T09:47:01.649Z,1.73
2022-12-26T09:49:33.825Z,1.33
2022-12-26T09:52:04.350Z,1.63
2022-12-26T09:54:35.765Z,1.92
2022-12-26T09:57:15.137Z,2.20
2022-12-26T09:59:49.276Z,2.22
2022-12-26T10:02:20.862Z,2.08
2022-12-26T10:04:49.302Z,2.00
2022-12-26T10:07:24.790Z,1.73
2022-12-26T10:10:01.920Z,1.52
2022-12-26T10:12:38.804Z,1.58
2022-12-26T10:15:23.515Z,1.42
2022-12-26T10:18:03.381Z,1.13
2022-12-26T10:20:38.028Z,1.20
2022-12-26T10:23:30.306Z,1.23
2022-12-26T10:26:05.056Z,1.02
2022-12-26T10:28:40.225Z,1.52
2022-12-26T10:31:14.617Z,1.40
2022-12-26T10:33:48.289Z,1.50
2022-12-26T10:36:29.199Z,1.65
2022-12-26T10:38:59.077Z,1.98
2022-12-26T10:41:30.855Z,1.52
2022-12-26T10:44:00.323Z,1.88
2022-12-26T10:46:57.867Z,1.42
2022-12-26T10:49:27.405Z,1.27
2022-12-26T10:51:58.343Z,1.63
2022-12-26T10:54:29.238Z,1.60
2022-12-26T10:56:58.742Z,1.48
2022-12-26T10:59:39.637Z,1.50
2022-12-26T11:02:25.120Z,1.70
2022-12-26T11:05:27.167Z,1.98
2022-12-26T11:07:57.951Z,1.90
2022-12-26T11:10:29.839Z,1.88
2022-12-26T11:13:01.574Z,1.40
2022-12-26T11:15:34.912Z,1.20
2022-12-26T11:18:17.875Z,1.15
2022-12-26T11:20:47.103Z,1.60
2022-12-26T11:23:26.073Z,1.20
2022-12-26T11:25:56.011Z,1.60
2022-12-26T11:28:33.537Z,1.25
2022-12-26T11:31:06.050Z,1.55
2022-12-26T11:33:37.775Z,1.60
2022-12-26T11:36:11.449Z,1.05
2022-12-26T11:38:59.920Z,1.30
2022-12-26T11:41:41.588Z,1.02
2022-12-26T11:44:20.944Z,1.08
2022-12-26T11:46:54.827Z,1.00
2022-12-26T11:49:28.537Z,1.20
2022-12-26T11:51:59.879Z,1.10
2022-12-26T11:54:35.723Z,1.60
2022-12-26T11:57:18.669Z,1.20
2022-12-26T11:59:47.452Z,0.93
2022-12-26T12:02:32.748Z,1.00
2022-12-26T12:05:07.687Z,1.27
2022-12-26T12:07:59.480Z,1.13
2022-12-26T12:11:12.479Z,1.27
2022-12-26T12:13:53.457Z,1.42
2022-12-26T12:16:37.154Z,1.17
2022-12-26T12:19:21.720Z,1.17
2022-12-26T12:22:10.927Z,1.17
2022-12-26T12:25:01.210Z,1.10
2022-12-26T12:27:32.882Z,1.05
2022-12-26T12:30:11.984Z,1.60
2022-12-26T12:32:57.217Z,0.90
2022-12-26T12:35:40.418Z,1.10
2022-12-26T12:38:31.387Z,1.23
2022-12-26T12:41:14.701Z,1.08
2022-12-26T12:43:49.464Z,0.88
2022-12-26T12:46:28.867Z,1.17
2022-12-26T12:49:12.449Z,1.15
2022-12-26T12:51:51.419Z,1.10
2022-12-26T12:54:41.209Z,1.10
2022-12-26T12:57:19.112Z,1.50
2022-12-26T13:00:06.223Z,1.08
2022-12-26T13:02:40.181Z,1.30
2022-12-26T13:05:19.571Z,0.70
2022-12-26T13:07:53.421Z,0.80
2022-12-26T13:10:26.441Z,0.60
2022-12-26T13:12:56.838Z,0.52
2022-12-26T13:15:32.067Z,0.95
2022-12-26T13:18:04.777Z,0.90
2022-12-26T13:20:39.302Z,0.77
2022-12-26T13:23:35.124Z,0.80
2022-12-26T13:26:11.974Z,0.88
2022-12-26T13:28:49.729Z,0.70
2022-12-26T13:31:18.604Z,0.85
2022-12-26T13:33:47.033Z,1.00
2022-12-26T13:36:38.239Z,0.68
2022-12-26T13:39:45.809Z,0.90
2022-12-26T13:42:50.124Z,2.05
2022-12-26T13:45:56.460Z,0.88
2022-12-26T13:48:56.858Z,0.73
2022-12-26T13:51:54.453Z,1.13
2022-12-26T13:54:24.893Z,1.00
2022-12-26T13:57:31.886Z,0.90
2022-12-26T14:00:08.281Z,0.90
2022-12-26T14:03:19.114Z,1.00
2022-12-26T14:06:00.373Z,1.17
2022-12-26T14:08:37.331Z,0.50
2022-12-26T14:11:21.271Z,0.70
2022-12-26T14:14:12.938Z,0.68
2022-12-26T14:16:49.717Z,0.70
2022-12-26T14:19:29.135Z,0.80
2022-12-26T14:22:04.154Z,0.70
2022-12-26T14:24:37.671Z,0.75
2022-12-26T14:27:25.081Z,0.98
2022-12-26T14:30:02.572Z,0.60
2022-12-26T14:32:40.825Z,0.85
2022-12-26T14:35:16.410Z,0.82
2022-12-26T14:37:53.850Z,1.02
2022-12-26T14:40:30.510Z,0.80
2022-12-26T14:43:40.533Z,0.50
2022-12-26T14:46:51.575Z,0.63
2022-12-26T14:49:25.329Z,1.10
2022-12-26T14:51:55.361Z,1.98
2022-12-26T14:54:42.107Z,0.70
2022-12-26T14:57:53.811Z,0.40
2022-12-26T15:00:36.143Z,0.57
2022-12-26T15:03:41.645Z,0.32
2022-12-26T15:06:53.669Z,0.40
2022-12-26T15:09:42.187Z,0.40
2022-12-26T15:12:52.460Z,0.32
2022-12-26T15:15:33.679Z,0.50
2022-12-26T15:18:24.747Z,0.47
2022-12-26T15:21:17.509Z,0.40
2022-12-26T15:24:08.073Z,1.00
2022-12-26T15:27:18.050Z,0.70
2022-12-26T15:30:12.827Z,1.13
2022-12-26T15:32:47.475Z,1.38
2022-12-26T15:35:22.302Z,0.73
2022-12-26T15:38:12.600Z,0.90
2022-12-26T15:40:51.408Z,1.73
2022-12-26T15:43:35.722Z,1.73
2022-12-26T15:46:16.003Z,1.65
2022-12-26T15:48:55.550Z,1.65
2022-12-26T15:51:34.123Z,1.83
2022-12-26T15:54:19.601Z,2.45
2022-12-26T15:56:56.517Z,2.08
2022-12-26T15:59:49.175Z,3.00
2022-12-26T16:02:36.484Z,2.72
2022-12-26T16:05:28.811Z,2.28
2022-12-26T16:08:06.855Z,4.65
2022-12-26T16:10:36.673Z,6.88
2022-12-26T16:13:22.835Z,6.60
2022-12-26T16:15:52.996Z,3.95
2022-12-26T16:18:23.205Z,2.40
2022-12-26T16:21:10.862Z,4.65
2022-12-26T16:23:42.981Z,7.43
2022-12-26T16:26:18.379Z,3.78
2022-12-26T16:28:47.887Z,3.22
2022-12-26T16:31:21.802Z,3.53
2022-12-26T16:33:52.781Z,3.03
2022-12-26T16:36:23.266Z,2.92
2022-12-26T16:38:52.256Z,4.53
2022-12-26T16:41:22.022Z,2.03
2022-12-26T16:43:54.025Z,2.03
2022-12-26T16:46:24.899Z,1.98
2022-12-26T16:48:56.715Z,2.33
2022-12-26T16:51:38.849Z,2.85
2022-12-26T16:54:18.150Z,4.57
2022-12-26T16:56:50.183Z,2.13
2022-12-26T16:59:23.315Z,1.90
2022-12-26T17:01:54.444Z,1.83
2022-12-26T17:04:24.448Z,4.70
2022-12-26T17:06:56.079Z,2.20
2022-12-26T17:09:27.175Z,2.05
2022-12-26T17:11:58.171Z,3.22
2022-12-26T17:14:31.648Z,2.95
2022-12-26T17:17:00.583Z,2.40
2022-12-26T17:19:30.123Z,3.28
2022-12-26T17:22:28.710Z,2.60
2022-12-26T17:25:22.118Z,3.42
2022-12-26T17:28:23.405Z,2.90
2022-12-26T17:30:54.374Z,3.97
2022-12-26T17:33:25.403Z,5.30
2022-12-26T17:36:52.552Z,3.90
2022-12-26T17:38:46.023Z,4.72
2022-12-26T17:41:16.529Z,4.60
2022-12-26T17:43:45.829Z,3.53
2022-12-26T17:46:17.852Z,4.75
2022-12-26T17:48:46.422Z,3.35
2022-12-26T17:51:17.242Z,4.63
2022-12-26T17:53:49.438Z,4.70
2022-12-26T17:56:21.131Z,4.10
2022-12-26T17:58:49.725Z,5.20
2022-12-26T18:01:21.844Z,6.00
2022-12-26T18:03:50.194Z,4.88
2022-12-26T18:06:19.545Z,6.25
2022-12-26T18:08:47.641Z,5.80
2022-12-26T18:11:16.055Z,5.70
2022-12-26T18:13:44.347Z,6.70
2022-12-26T18:16:17.490Z,5.28
2022-12-26T18:18:48.428Z,5.68
2022-12-26T18:21:17.556Z,5.82
2022-12-26T18:23:45.620Z,5.40
2022-12-26T18:26:21.227Z,5.00
2022-12-26T18:28:51.803Z,5.15
2022-12-26T18:31:19.843Z,4.80
2022-12-26T18:33:49.220Z,5.72
2022-12-26T18:36:18.650Z,5.20
2022-12-26T18:38:46.984Z,5.38
2022-12-26T18:41:16.483Z,6.03
2022-12-26T18:43:44.983Z,6.10
2022-12-26T18:46:16.971Z,7.40
2022-12-26T18:48:45.267Z,6.78
2022-12-26T18:51:14.803Z,7.43
2022-12-26T18:53:42.858Z,6.60
2022-12-26T18:56:14.808Z,6.22
2022-12-26T18:58:43.235Z,7.35
2022-12-26T19:01:13.709Z,6.85
2022-12-26T19:03:42.756Z,5.13
2022-12-26T19:06:15.564Z,6.00
2022-12-26T19:08:43.653Z,6.22
2022-12-26T19:11:14.131Z,6.93
2022-12-26T19:13:42.745Z,8.70
2022-12-26T19:16:11.355Z,6.63
2022-12-26T19:18:39.460Z,6.88
2022-12-26T19:21:12.314Z,9.00
2022-12-26T19:23:42.280Z,7.30
2022-12-26T19:26:11.523Z,4.57
2022-12-26T19:28:40.112Z,7.25
2022-12-26T19:31:08.887Z,5.32
2022-12-26T19:33:37.373Z,5.88
2022-12-26T19:36:07.609Z,5.55
2022-12-26T19:38:36.137Z,4.93
2022-12-26T19:41:07.392Z,4.78
2022-12-26T19:43:35.432Z,5.70
2022-12-26T19:46:05.799Z,4.97
2022-12-26T19:48:35.321Z,4.97
2022-12-26T19:51:04.944Z,4.57
2022-12-26T19:53:33.073Z,4.80
2022-12-26T19:56:02.042Z,5.90
2022-12-26T19:58:32.145Z,4.38
2022-12-26T20:01:06.666Z,3.83
2022-12-26T20:03:35.056Z,4.60
2022-12-26T20:06:09.716Z,4.60
2022-12-26T20:08:37.776Z,5.30
2022-12-26T20:11:07.389Z,3.95
2022-12-26T20:13:36.885Z,4.63
2022-12-26T20:16:06.502Z,4.47
2022-12-26T20:18:35.945Z,4.90
2022-12-26T20:21:04.582Z,4.68
2022-12-26T20:23:32.783Z,4.85
2022-12-26T20:26:01.890Z,4.97
2022-12-26T20:28:30.020Z,5.13
2022-12-26T20:31:00.443Z,6.43
2022-12-26T20:33:28.567Z,6.18
2022-12-26T20:36:03.627Z,6.72
2022-12-26T20:38:32.058Z,5.03
2022-12-26T20:41:00.582Z,5.20
2022-12-26T20:43:29.030Z,4.50
2022-12-26T20:46:03.042Z,5.65
2022-12-26T20:48:35.176Z,3.80
2022-12-26T20:51:07.672Z,3.85
2022-12-26T20:53:36.451Z,3.67
2022-12-26T20:56:05.079Z,3.55
2022-12-26T20:58:34.373Z,3.40
2022-12-26T21:01:05.643Z,4.75
2022-12-26T21:03:34.890Z,3.63
2022-12-26T21:06:08.223Z,2.75
2022-12-26T21:08:37.655Z,3.08
2022-12-26T21:11:07.803Z,3.05
2022-12-26T21:13:36.575Z,3.88
2022-12-26T21:16:11.226Z,5.07
2022-12-26T21:18:39.435Z,4.45
2022-12-26T21:21:09.537Z,5.20
2022-12-26T21:23:38.167Z,7.05
2022-12-26T21:26:07.154Z,4.25
2022-12-26T21:28:35.818Z,8.95
2022-12-26T21:31:03.995Z,12.88
2022-12-26T21:33:34.424Z,8.07
2022-12-26T21:36:09.652Z,5.35
2022-12-26T21:38:37.973Z,5.22
2022-12-26T21:41:08.092Z,4.45
2022-12-26T21:43:36.753Z,4.40
2022-12-26T21:46:08.728Z,4.88
2022-12-26T21:48:38.180Z,7.47
2022-12-26T21:51:09.311Z,5.20
2022-12-26T21:53:37.340Z,4.72
2022-12-26T21:56:05.607Z,5.85
2022-12-26T21:58:54.500Z,4.95
2022-12-26T22:01:24.170Z,4.93
2022-12-26T22:04:12.086Z,5.60
2022-12-26T22:06:41.366Z,5.00
2022-12-26T22:09:10.419Z,4.82
2022-12-26T22:11:56.241Z,5.13
2022-12-26T22:14:24.652Z,5.63
2022-12-26T22:16:53.831Z,4.57
2022-12-26T22:19:24.395Z,5.38
2022-12-26T22:21:52.502Z,6.35
2022-12-26T22:24:21.612Z,6.63
2022-12-26T22:26:49.727Z,4.15
2022-12-26T22:29:17.917Z,4.07
2022-12-26T22:31:45.927Z,4.53
2022-12-26T22:34:16.306Z,3.97
2022-12-26T22:36:45.648Z,4.72
2022-12-26T22:39:16.956Z,4.13
2022-12-26T22:41:45.540Z,5.57
2022-12-26T22:44:13.739Z,4.63
2022-12-26T22:46:42.409Z,5.22
2022-12-26T22:49:10.598Z,4.32
2022-12-26T22:51:39.317Z,4.65
2022-12-26T22:54:08.695Z,3.10
2022-12-26T22:56:36.723Z,3.08
2022-12-26T22:59:04.743Z,3.03
2022-12-26T23:01:32.956Z,3.60
2022-12-26T23:04:02.043Z,2.97
2022-12-26T23:06:31.987Z,3.07
2022-12-26T23:09:03.016Z,3.13
2022-12-26T23:11:35.497Z,2.45
2022-12-26T23:14:05.623Z,3.07
2022-12-26T23:16:36.391Z,2.53
2022-12-26T23:19:27.898Z,2.77
2022-12-26T23:21:56.839Z,6.13
2022-12-26T23:24:26.595Z,4.60
2022-12-26T23:27:18.860Z,4.35
2022-12-26T23:30:04.624Z,3.57
2022-12-26T23:32:32.892Z,3.93
2022-12-26T23:35:00.969Z,3.85
2022-12-26T23:37:28.989Z,3.97
2022-12-26T23:39:57.313Z,7.10
2022-12-26T23:42:26.790Z,4.83
2022-12-26T23:44:54.805Z,4.77
2022-12-26T23:47:22.856Z,4.30
2022-12-26T23:49:50.938Z,3.83
2022-12-26T23:52:19.182Z,3.65
2022-12-26T23:54:47.223Z,5.13
2022-12-26T23:57:15.347Z,3.43
2022-12-26T23:59:44.694Z,3.63
